Time;durP1;ratioP1;P1;durP2;ratioP2;P2;SDS_P1;SDS_P2;PMS_P1;PMS_P2;Temp;Humidity;BMP_temperature;BMP_pressure;BME280_temperature;BME280_humidity;BME280_pressure;Samples;Min_cycle;Max_cycle;Signal;HPM_P1;HPM_P2
2024/01/21 00:02:21;;;;;;;14.63;7.90;;;-5.90;70.60;;;;;;4986104;28;20248;-58
2024/01/21 00:04:47;;;;;;;15.33;8.40;;;-5.90;70.60;;;;;;4984579;28;20531;-59
2024/01/21 00:07:12;;;;;;;13.03;8.20;;;-6.00;70.80;;;;;;4984387;28;20424;-58
2024/01/21 00:09:38;;;;;;;18.33;7.80;;;-6.00;71.20;;;;;;4987521;28;20412;-59
2024/01/21 00:12:04;;;;;;;18.57;9.97;;;-6.00;72.40;;;;;;4989398;28;20792;-61
2024/01/21 00:14:29;;;;;;;19.50;9.00;;;-6.00;72.70;;;;;;4983216;28;20212;-59
2024/01/21 00:16:55;;;;;;;13.80;7.60;;;-6.00;73.00;;;;;;4988344;28;20386;-58
2024/01/21 00:19:21;;;;;;;12.40;7.63;;;-6.10;73.50;;;;;;4987079;28;20174;-59
2024/01/21 00:21:46;;;;;;;17.30;9.20;;;-6.10;74.10;;;;;;4987128;28;20177;-58
2024/01/21 00:24:12;;;;;;;17.00;9.70;;;-6.10;74.30;;;;;;4991694;28;20187;-59
2024/01/21 00:26:37;;;;;;;18.63;8.07;;;-6.10;74.60;;;;;;4985310;28;20174;-59
2024/01/21 00:29:03;;;;;;;15.13;7.87;;;-6.10;75.00;;;;;;4985010;28;20174;-59
2024/01/21 00:31:29;;;;;;;16.93;8.60;;;-6.10;75.20;;;;;;4982793;28;20206;-59
2024/01/21 00:33:55;;;;;;;14.43;8.20;;;-6.10;75.00;;;;;;4987521;28;20212;-59
2024/01/21 00:36:20;;;;;;;17.50;8.70;;;-6.10;74.90;;;;;;4988519;28;20645;-59
2024/01/21 00:38:46;;;;;;;17.33;8.17;;;-6.10;74.60;;;;;;4988586;28;20170;-59
2024/01/21 00:41:15;;;;;;;20.40;9.80;;;-6.10;74.50;;;;;;4982255;28;20649;-58
2024/01/21 00:43:41;;;;;;;20.37;8.30;;;-6.20;74.40;;;;;;4978030;28;20188;-59
2024/01/21 00:46:07;;;;;;;23.50;9.57;;;-6.20;74.70;;;;;;4982662;28;20439;-59
2024/01/21 00:48:34;;;;;;;19.65;8.77;;;-6.20;74.60;;;;;;4981611;28;20173;-59
2024/01/21 00:51:00;;;;;;;21.37;8.47;;;-6.30;74.50;;;;;;4984953;28;20213;-59
2024/01/21 00:53:26;;;;;;;17.43;8.80;;;-6.30;75.00;;;;;;4984704;28;20615;-59
2024/01/21 00:55:52;;;;;;;17.00;8.60;;;-6.30;75.50;;;;;;4987735;28;20420;-59
2024/01/21 00:58:17;;;;;;;20.53;9.40;;;-6.30;75.80;;;;;;4983696;28;20434;-59
2024/01/21 01:00:43;;;;;;;17.47;9.30;;;-6.30;76.30;;;;;;4991326;28;20170;-58
2024/01/21 01:03:08;;;;;;;15.73;8.27;;;-6.30;76.80;;;;;;4988131;28;20206;-59
2024/01/21 01:05:34;;;;;;;18.30;8.30;;;-6.40;76.80;;;;;;4986839;28;20199;-59
2024/01/21 01:08:00;;;;;;;18.67;9.60;;;-6.40;77.10;;;;;;4982817;28;20206;-59
2024/01/21 01:10:25;;;;;;;16.60;8.03;;;-6.40;77.30;;;;;;4988182;28;20207;-58
2024/01/21 01:12:51;;;;;;;15.47;6.90;;;-6.40;77.60;;;;;;4987033;28;20165;-59
2024/01/21 01:15:16;;;;;;;18.30;8.37;;;-6.40;77.20;;;;;;4984875;28;20221;-59
2024/01/21 01:17:42;;;;;;;17.77;7.40;;;-6.40;77.30;;;;;;4988750;28;20173;-59
2024/01/21 01:20:08;;;;;;;17.10;7.80;;;-6.50;77.60;;;;;;4988268;28;20236;-59
2024/01/21 01:22:35;;;;;;;19.00;7.67;;;-6.50;77.80;;;;;;4984671;28;20175;-59
2024/01/21 01:25:00;;;;;;;17.80;7.47;;;-6.50;78.30;;;;;;4982844;28;20445;-59
2024/01/21 01:27:26;;;;;;;17.93;8.03;;;-6.50;78.70;;;;;;4984978;28;20479;-60
2024/01/21 01:29:52;;;;;;;14.00;7.10;;;-6.60;78.70;;;;;;4985889;28;20217;-59
2024/01/21 01:32:17;;;;;;;15.07;7.80;;;-6.60;78.50;;;;;;4987702;28;20177;-59
2024/01/21 01:34:43;;;;;;;16.10;7.10;;;-6.60;78.80;;;;;;4982733;28;20197;-59
2024/01/21 01:37:09;;;;;;;15.47;7.57;;;-6.60;78.70;;;;;;4999122;28;20171;-59
2024/01/21 01:39:35;;;;;;;16.07;7.00;;;-6.70;79.40;;;;;;4982278;28;20213;-58
2024/01/21 01:42:01;;;;;;;14.73;8.00;;;-6.70;80.00;;;;;;4984891;28;20170;-59
2024/01/21 01:44:26;;;;;;;14.47;7.70;;;-6.70;80.60;;;;;;4982904;28;20456;-59
2024/01/21 01:46:52;;;;;;;14.53;8.23;;;-6.70;80.50;;;;;;4979759;28;20171;-60
2024/01/21 01:49:19;;;;;;;14.90;8.40;;;-6.70;80.00;;;;;;4985787;28;20182;-59
2024/01/21 01:51:45;;;;;;;21.40;8.43;;;-6.70;80.10;;;;;;4984634;28;20194;-59
2024/01/21 01:54:11;;;;;;;15.40;8.35;;;-6.70;79.50;;;;;;4982799;28;21167;-58
2024/01/21 01:56:38;;;;;;;19.57;10.00;;;-6.70;79.40;;;;;;4981168;28;20186;-59
2024/01/21 01:59:08;;;;;;;15.38;8.75;;;-6.70;80.20;;;;;;4982428;28;20178;-58
2024/01/21 02:01:37;;;;;;;16.38;8.70;;;-6.80;81.30;;;;;;4985953;28;20189;-59
2024/01/21 02:04:06;;;;;;;16.38;8.35;;;-6.80;81.60;;;;;;4987678;28;20182;-60
2024/01/21 02:06:32;;;;;;;18.70;8.90;;;-6.80;81.60;;;;;;4985583;28;20185;-59
2024/01/21 02:08:58;;;;;;;26.13;8.40;;;-6.80;81.00;;;;;;4986766;28;20192;-59
2024/01/21 02:11:23;;;;;;;17.43;7.90;;;-6.80;81.20;;;;;;4984062;28;20566;-59
2024/01/21 02:13:49;;;;;;;14.17;7.27;;;-6.80;81.50;;;;;;4985297;28;20197;-59
2024/01/21 02:16:15;;;;;;;18.27;8.00;;;-6.80;81.50;;;;;;4982181;28;20788;-58
2024/01/21 02:18:46;;;;;;;15.00;8.32;;;-6.80;81.40;;;;;;4985849;28;20228;-59
2024/01/21 02:21:12;;;;;;;14.82;7.70;;;-6.80;81.00;;;;;;4984722;28;20176;-59
2024/01/21 02:23:38;;;;;;;14.32;7.45;;;-6.80;81.00;;;;;;4984486;28;20257;-59
2024/01/21 02:26:04;;;;;;;13.87;7.70;;;-6.90;80.50;;;;;;4984461;28;20775;-59
2024/01/21 02:28:29;;;;;;;15.63;7.90;;;-6.90;81.00;;;;;;4985966;28;20414;-59
2024/01/21 02:30:55;;;;;;;15.70;7.77;;;-6.90;81.10;;;;;;4983644;28;20212;-58
2024/01/21 02:33:21;;;;;;;17.30;7.80;;;-6.90;81.30;;;;;;4988578;28;20197;-59
2024/01/21 02:35:46;;;;;;;15.13;8.10;;;-6.90;81.30;;;;;;4984219;28;20738;-59
2024/01/21 02:38:12;;;;;;;16.67;7.67;;;-7.00;80.90;;;;;;4988913;28;20662;-59
2024/01/21 02:40:38;;;;;;;14.00;7.67;;;-7.00;81.00;;;;;;4988674;28;20749;-59
2024/01/21 02:43:04;;;;;;;15.88;7.90;;;-7.00;81.40;;;;;;4989736;28;20182;-59
2024/01/21 02:45:30;;;;;;;16.10;7.90;;;-7.00;82.40;;;;;;4981500;28;20197;-58
2024/01/21 02:47:56;;;;;;;11.15;6.80;;;-7.00;82.80;;;;;;4982852;28;20190;-59
2024/01/21 02:50:21;;;;;;;11.87;6.37;;;-7.10;82.90;;;;;;4990527;28;20204;-59
2024/01/21 02:52:47;;;;;;;12.70;7.30;;;-7.10;83.20;;;;;;4987723;28;20178;-59
2024/01/21 02:55:13;;;;;;;17.13;8.23;;;-7.10;83.30;;;;;;4983231;28;20201;-59
2024/01/21 02:57:38;;;;;;;13.87;6.93;;;-7.10;83.20;;;;;;4986892;28;20205;-59
2024/01/21 03:00:04;;;;;;;11.27;7.13;;;-7.10;83.50;;;;;;4985007;28;20277;-59
2024/01/21 03:02:30;;;;;;;17.83;7.43;;;-7.10;83.70;;;;;;4987420;28;20185;-59
2024/01/21 03:04:56;;;;;;;12.48;6.97;;;-7.10;83.90;;;;;;4981950;28;20988;-59
2024/01/21 03:07:22;;;;;;;17.33;8.07;;;-7.20;84.30;;;;;;4988829;28;20178;-59
2024/01/21 03:09:47;;;;;;;15.40;8.33;;;-7.10;83.80;;;;;;4986884;28;20175;-59
2024/01/21 03:12:13;;;;;;;15.90;7.63;;;-7.20;84.50;;;;;;4987356;28;20170;-59
2024/01/21 03:14:39;;;;;;;15.00;7.53;;;-7.20;85.00;;;;;;4990652;28;20226;-60
2024/01/21 03:17:04;;;;;;;11.53;6.97;;;-7.20;85.60;;;;;;4983302;28;20557;-59
2024/01/21 03:19:30;;;;;;;12.43;6.27;;;-7.20;85.30;;;;;;4987541;28;20637;-59
2024/01/21 03:21:56;;;;;;;12.03;5.93;;;-7.20;85.30;;;;;;4988414;28;20582;-59
2024/01/21 03:24:21;;;;;;;17.60;6.80;;;-7.10;84.90;;;;;;4984691;28;20175;-59
2024/01/21 03:26:47;;;;;;;13.30;6.30;;;-7.20;84.80;;;;;;4989801;28;20934;-59
2024/01/21 03:29:13;;;;;;;15.63;6.47;;;-7.20;85.50;;;;;;4984740;28;20816;-58
2024/01/21 03:31:38;;;;;;;14.03;6.80;;;-7.30;85.80;;;;;;4979615;28;20206;-59
2024/01/21 03:34:04;;;;;;;14.27;6.40;;;-7.30;86.00;;;;;;4989294;28;20268;-60
2024/01/21 03:36:30;;;;;;;11.93;6.00;;;-7.30;86.10;;;;;;4984751;28;20191;-59
2024/01/21 03:38:55;;;;;;;9.50;5.77;;;-7.30;86.60;;;;;;4989788;28;20169;-59
2024/01/21 03:41:21;;;;;;;14.73;6.57;;;-7.30;87.00;;;;;;4987164;28;20451;-58
2024/01/21 03:43:47;;;;;;;13.47;6.73;;;-7.30;86.80;;;;;;4981021;28;20186;-59
2024/01/21 03:46:12;;;;;;;12.53;6.40;;;-7.30;86.70;;;;;;4987138;28;20193;-59
2024/01/21 03:48:38;;;;;;;10.93;6.33;;;-7.30;86.50;;;;;;4990232;28;20178;-60
2024/01/21 03:51:04;;;;;;;15.63;6.72;;;-7.30;87.40;;;;;;4988476;28;20328;-61
2024/01/21 03:53:30;;;;;;;13.18;6.68;;;-7.30;87.80;;;;;;4986490;28;20197;-59
2024/01/21 03:55:56;;;;;;;11.13;5.87;;;-7.30;87.80;;;;;;4986209;28;20245;-59
2024/01/21 03:58:21;;;;;;;14.10;6.97;;;-7.30;87.60;;;;;;4987987;28;20751;-59
2024/01/21 04:00:47;;;;;;;11.33;6.17;;;-7.30;87.20;;;;;;4987901;28;20170;-59
2024/01/21 04:03:12;;;;;;;10.60;6.90;;;-7.30;87.80;;;;;;4984469;28;20206;-58
2024/01/21 04:05:38;;;;;;;10.77;6.80;;;-7.30;88.30;;;;;;4985473;28;20263;-58
2024/01/21 04:08:05;;;;;;;14.30;6.90;;;-7.30;88.80;;;;;;4987432;28;20174;-58
2024/01/21 04:10:31;;;;;;;18.20;6.72;;;-7.30;89.20;;;;;;4990612;28;20186;-59
2024/01/21 04:12:57;;;;;;;13.83;6.83;;;-7.30;89.30;;;;;;4985791;28;20186;-59
2024/01/21 04:15:22;;;;;;;10.47;6.27;;;-7.30;88.60;;;;;;4986033;28;20202;-58
2024/01/21 04:17:48;;;;;;;9.57;6.07;;;-7.30;88.30;;;;;;4987670;28;20177;-59
2024/01/21 04:20:13;;;;;;;13.13;7.03;;;-7.30;88.10;;;;;;4987037;28;20178;-59
2024/01/21 04:22:39;;;;;;;12.17;6.37;;;-7.30;88.10;;;;;;4987791;28;20187;-58
2024/01/21 04:25:05;;;;;;;11.10;6.00;;;-7.40;89.30;;;;;;4986106;28;20207;-59
2024/01/21 04:27:30;;;;;;;12.90;6.37;;;-7.40;89.80;;;;;;4981141;28;20182;-58
2024/01/21 04:29:56;;;;;;;10.50;5.87;;;-7.30;90.00;;;;;;4988203;28;20427;-58
2024/01/21 04:32:21;;;;;;;14.13;6.60;;;-7.30;90.20;;;;;;4981444;28;20178;-59
2024/01/21 04:34:47;;;;;;;11.17;6.00;;;-7.30;89.90;;;;;;4991887;28;20657;-59
2024/01/21 04:37:13;;;;;;;9.43;6.00;;;-7.30;89.60;;;;;;4984443;28;20203;-59
2024/01/21 04:39:38;;;;;;;9.50;6.33;;;-7.30;89.50;;;;;;4983125;28;20641;-59
2024/01/21 04:42:04;;;;;;;11.00;6.17;;;-7.40;89.20;;;;;;5004578;28;20190;-59
2024/01/21 04:44:29;;;;;;;11.93;6.30;;;-7.40;88.80;;;;;;4989799;28;20204;-58
2024/01/21 04:46:56;;;;;;;11.93;6.53;;;-7.40;89.20;;;;;;4985372;28;20592;-59
2024/01/21 04:49:21;;;;;;;13.40;6.95;;;-7.40;89.40;;;;;;4984730;28;20181;-60
2024/01/21 04:51:47;;;;;;;15.07;6.97;;;-7.40;90.30;;;;;;4984197;28;20753;-59
2024/01/21 04:54:12;;;;;;;16.67;7.60;;;-7.40;90.70;;;;;;4986904;28;20671;-59
2024/01/21 04:56:38;;;;;;;14.23;7.00;;;-7.40;90.90;;;;;;4985877;28;20182;-59
2024/01/21 04:59:04;;;;;;;14.00;6.17;;;-7.40;91.00;;;;;;4988699;28;20182;-59
2024/01/21 05:01:29;;;;;;;17.07;7.73;;;-7.40;91.00;;;;;;4983881;28;20170;-58
2024/01/21 05:03:55;;;;;;;13.00;6.43;;;-7.30;90.90;;;;;;4986641;28;20187;-59
2024/01/21 05:06:20;;;;;;;15.60;6.90;;;-7.40;90.70;;;;;;4983406;28;20196;-59
2024/01/21 05:08:46;;;;;;;11.77;6.43;;;-7.40;90.70;;;;;;4988204;28;20178;-58
2024/01/21 05:11:15;;;;;;;15.87;7.03;;;-7.40;90.60;;;;;;4986625;28;20606;-59
2024/01/21 05:13:41;;;;;;;15.90;7.05;;;-7.40;90.60;;;;;;4984663;28;20169;-59
2024/01/21 05:16:06;;;;;;;12.25;7.57;;;-7.40;90.50;;;;;;4985032;28;20275;-59
2024/01/21 05:18:32;;;;;;;14.70;7.27;;;-7.40;90.40;;;;;;4986597;28;20181;-59
2024/01/21 05:20:58;;;;;;;11.20;6.70;;;-7.40;91.30;;;;;;4987264;28;20184;-59
2024/01/21 05:23:23;;;;;;;14.43;7.17;;;-7.40;91.20;;;;;;4979674;28;20178;-59
2024/01/21 05:25:52;;;;;;;18.90;7.77;;;-7.40;91.30;;;;;;4985900;28;20679;-58
2024/01/21 05:28:18;;;;;;;16.83;7.97;;;-7.40;91.60;;;;;;4988592;28;20204;-59
2024/01/21 05:30:44;;;;;;;18.00;8.77;;;-7.40;91.50;;;;;;4983074;28;20229;-59
2024/01/21 05:33:09;;;;;;;17.93;8.17;;;-7.40;91.90;;;;;;4986277;28;20471;-58
2024/01/21 05:35:35;;;;;;;23.23;9.87;;;-7.40;91.80;;;;;;4985697;28;21041;-61
2024/01/21 05:38:01;;;;;;;18.03;8.57;;;-7.40;91.40;;;;;;4984285;28;20181;-59
2024/01/21 05:40:26;;;;;;;16.20;8.40;;;-7.40;91.70;;;;;;4986173;28;20673;-58
2024/01/21 05:42:52;;;;;;;17.13;8.20;;;-7.40;92.00;;;;;;4988866;28;20542;-59
2024/01/21 05:45:18;;;;;;;16.77;7.70;;;-7.40;92.00;;;;;;4985141;28;20200;-58
2024/01/21 05:47:44;;;;;;;13.18;7.03;;;-7.40;92.10;;;;;;4987280;28;20185;-59
2024/01/21 05:50:10;;;;;;;14.20;7.83;;;-7.30;92.30;;;;;;4986922;28;20197;-59
2024/01/21 05:52:36;;;;;;;15.37;7.57;;;-7.30;92.50;;;;;;4986544;28;20166;-59
2024/01/21 05:55:05;;;;;;;18.38;8.93;;;-7.30;92.60;;;;;;4986704;28;20689;-59
2024/01/21 05:57:31;;;;;;;16.67;8.93;;;-7.30;93.10;;;;;;4981138;28;20362;-59
2024/01/21 05:59:58;;;;;;;16.97;9.70;;;-7.20;93.30;;;;;;4986103;28;20264;-58
2024/01/21 06:02:23;;;;;;;18.17;7.95;;;-7.20;93.10;;;;;;4981548;28;20173;-59
2024/01/21 06:04:50;;;;;;;14.80;7.50;;;-7.20;92.70;;;;;;4986356;28;20212;-59
2024/01/21 06:07:16;;;;;;;13.43;8.18;;;-7.20;92.20;;;;;;4981299;28;20594;-59
2024/01/21 06:09:42;;;;;;;12.55;6.82;;;-7.20;92.00;;;;;;4983233;28;20178;-58
2024/01/21 06:12:08;;;;;;;16.70;6.97;;;-7.20;91.90;;;;;;4980930;28;20610;-59
2024/01/21 06:14:33;;;;;;;14.90;7.30;;;-7.20;91.50;;;;;;4980809;28;20204;-59
2024/01/21 06:16:59;;;;;;;17.07;7.87;;;-7.20;91.50;;;;;;4987145;28;20413;-60
2024/01/21 06:19:25;;;;;;;14.27;7.37;;;-7.20;91.40;;;;;;4985686;28;20253;-58
2024/01/21 06:21:50;;;;;;;21.47;8.40;;;-7.30;91.30;;;;;;4982162;28;20186;-59
2024/01/21 06:24:17;;;;;;;11.33;7.57;;;-7.30;91.60;;;;;;4987097;28;20186;-59
2024/01/21 06:26:43;;;;;;;11.93;6.82;;;-7.30;91.60;;;;;;4981075;28;20166;-59
2024/01/21 06:29:09;;;;;;;12.47;8.20;;;-7.30;91.80;;;;;;4981959;28;20194;-60
2024/01/21 06:31:35;;;;;;;11.60;6.53;;;-7.30;92.00;;;;;;4982879;28;20204;-59
2024/01/21 06:34:00;;;;;;;11.40;7.20;;;-7.30;91.80;;;;;;4983942;28;20269;-59
2024/01/21 06:36:26;;;;;;;14.97;8.53;;;-7.30;91.90;;;;;;4978249;28;20440;-58
2024/01/21 06:38:52;;;;;;;17.67;8.90;;;-7.30;91.90;;;;;;4981582;28;20671;-59
2024/01/21 06:41:18;;;;;;;14.10;7.67;;;-7.30;92.20;;;;;;4985912;28;20190;-57
2024/01/21 06:43:43;;;;;;;17.37;8.23;;;-7.30;92.70;;;;;;4985212;28;20216;-59
2024/01/21 06:46:09;;;;;;;22.70;8.13;;;-7.20;92.70;;;;;;4981472;28;20297;-59
2024/01/21 06:48:35;;;;;;;19.87;8.10;;;-7.20;92.10;;;;;;4983629;28;20202;-61
2024/01/21 06:51:04;;;;;;;17.90;7.83;;;-7.20;92.10;;;;;;4984462;28;20207;-59
2024/01/21 06:53:30;;;;;;;16.20;9.60;;;-7.30;91.80;;;;;;4988538;28;20178;-59
2024/01/21 06:55:56;;;;;;;22.80;9.18;;;-7.30;91.40;;;;;;4983611;28;20197;-59
2024/01/21 06:58:21;;;;;;;16.17;8.50;;;-7.30;92.20;;;;;;4982217;28;20229;-59
2024/01/21 07:00:51;;;;;;;14.37;7.90;;;-7.30;92.00;;;;;;4987890;28;20178;-59
2024/01/21 07:03:18;;;;;;;13.93;7.57;;;-7.30;91.90;;;;;;4983178;28;20191;-59
2024/01/21 07:05:43;;;;;;;19.75;8.15;;;-7.30;92.00;;;;;;4975306;28;20225;-60
2024/01/21 07:08:09;;;;;;;15.13;7.97;;;-7.20;92.10;;;;;;4982857;28;20201;-59
2024/01/21 07:10:34;;;;;;;17.07;8.60;;;-7.20;92.10;;;;;;4985922;28;20229;-58
2024/01/21 07:13:00;;;;;;;15.77;7.33;;;-7.20;92.20;;;;;;4987512;28;20207;-58
2024/01/21 07:15:26;;;;;;;21.00;8.13;;;-7.20;91.80;;;;;;4986965;28;20219;-59
2024/01/21 07:17:51;;;;;;;19.63;9.30;;;-7.20;91.70;;;;;;4985431;28;20197;-59
2024/01/21 07:20:17;;;;;;;13.23;7.73;;;-7.20;91.50;;;;;;4988725;28;20711;-58
2024/01/21 07:22:42;;;;;;;29.03;9.73;;;-7.20;91.60;;;;;;4982680;28;20193;-57
2024/01/21 07:25:08;;;;;;;14.80;6.80;;;-7.20;91.60;;;;;;4988703;28;20210;-58
2024/01/21 07:27:34;;;;;;;11.97;7.10;;;-7.20;91.20;;;;;;4989577;28;20678;-59
2024/01/21 07:30:00;;;;;;;16.97;8.23;;;-7.20;91.10;;;;;;4989226;28;20478;-58
2024/01/21 07:32:25;;;;;;;15.67;7.33;;;-7.20;91.20;;;;;;4989666;28;20182;-59
2024/01/21 07:34:51;;;;;;;13.57;7.83;;;-7.20;92.10;;;;;;4981247;28;20226;-58
2024/01/21 07:37:16;;;;;;;9.80;7.20;;;-7.20;92.10;;;;;;4982387;28;20324;-59
2024/01/21 07:39:42;;;;;;;16.90;7.50;;;-7.10;92.30;;;;;;4985535;28;20182;-59
2024/01/21 07:42:08;;;;;;;13.17;7.43;;;-7.10;92.40;;;;;;4989609;28;20644;-59
2024/01/21 07:44:33;;;;;;;13.90;8.40;;;-7.10;92.40;;;;;;4985706;28;20214;-59
2024/01/21 07:46:59;;;;;;;21.37;8.90;;;-7.10;93.00;;;;;;4989402;28;20189;-59
2024/01/21 07:49:25;;;;;;;17.77;8.83;;;-7.00;93.30;;;;;;4986741;28;20254;-58
2024/01/21 07:51:50;;;;;;;13.43;8.18;;;-7.00;93.40;;;;;;4987723;28;20743;-59
2024/01/21 07:54:16;;;;;;;21.40;9.40;;;-7.00;93.10;;;;;;4987074;28;20186;-59
2024/01/21 07:56:42;;;;;;;16.53;8.47;;;-6.90;92.50;;;;;;4979671;28;20312;-59
2024/01/21 07:59:07;;;;;;;21.07;11.27;;;-6.90;92.40;;;;;;4989286;28;20189;-60
2024/01/21 08:01:33;;;;;;;20.80;11.87;;;-6.90;92.00;;;;;;4987026;28;20202;-59
2024/01/21 08:03:58;;;;;;;17.90;9.77;;;-6.90;91.10;;;;;;4989294;28;20675;-58
2024/01/21 08:06:24;;;;;;;23.47;10.20;;;-6.90;90.60;;;;;;4982645;28;20198;-58
2024/01/21 08:08:50;;;;;;;23.23;11.27;;;-6.90;90.60;;;;;;4982799;28;20276;-59
2024/01/21 08:11:16;;;;;;;20.08;10.35;;;-6.90;90.80;;;;;;4987227;28;20220;-58
2024/01/21 08:13:41;;;;;;;21.00;10.93;;;-6.90;91.70;;;;;;4986856;28;20637;-59
2024/01/21 08:16:07;;;;;;;18.33;9.83;;;-6.80;92.30;;;;;;4987088;28;20961;-59
2024/01/21 08:18:34;;;;;;;21.77;10.90;;;-6.80;93.50;;;;;;4988375;28;20193;-59
2024/01/21 08:20:59;;;;;;;26.15;11.70;;;-6.70;93.50;;;;;;4985083;28;20596;-59
2024/01/21 08:23:25;;;;;;;21.90;11.93;;;-6.60;93.40;;;;;;4977752;28;20198;-59
2024/01/21 08:25:51;;;;;;;21.67;12.20;;;-6.50;93.40;;;;;;4979134;28;20201;-56
2024/01/21 08:28:16;;;;;;;16.03;10.07;;;-6.40;92.70;;;;;;4976536;28;20232;-54
2024/01/21 08:30:43;;;;;;;20.00;11.50;;;-6.40;92.30;;;;;;4984326;28;20677;-59
2024/01/21 08:33:09;;;;;;;25.63;11.70;;;-6.30;92.20;;;;;;4984334;28;20178;-59
2024/01/21 08:35:36;;;;;;;23.53;10.27;;;-6.20;93.50;;;;;;4976025;28;20202;-62
2024/01/21 08:38:02;;;;;;;19.60;10.70;;;-6.20;93.30;;;;;;4980265;28;20411;-61
2024/01/21 08:40:27;;;;;;;21.70;10.83;;;-6.10;93.20;;;;;;4983924;28;20611;-60
2024/01/21 08:42:53;;;;;;;21.33;10.63;;;-6.10;93.20;;;;;;4981947;28;20904;-61
2024/01/21 08:45:18;;;;;;;17.67;10.03;;;-6.00;93.20;;;;;;4982525;28;20194;-60
2024/01/21 08:47:45;;;;;;;22.67;11.00;;;-5.90;93.30;;;;;;4980746;28;20174;-60
2024/01/21 08:50:10;;;;;;;20.70;11.27;;;-5.80;93.00;;;;;;4979707;28;20177;-60
2024/01/21 08:52:36;;;;;;;23.53;10.93;;;-5.70;92.90;;;;;;4976293;28;20487;-60
2024/01/21 08:55:02;;;;;;;23.47;11.90;;;-5.60;92.60;;;;;;4982772;28;20273;-60
2024/01/21 08:57:29;;;;;;;23.10;11.33;;;-5.50;91.90;;;;;;4983865;28;20620;-58
2024/01/21 08:59:55;;;;;;;22.47;11.13;;;-5.50;91.90;;;;;;4984288;28;20454;-58
2024/01/21 09:02:21;;;;;;;26.70;11.80;;;-5.40;92.00;;;;;;4987771;28;20186;-58
2024/01/21 09:04:46;;;;;;;19.40;12.27;;;-5.30;92.10;;;;;;4983963;28;20202;-57
2024/01/21 09:07:12;;;;;;;25.53;12.00;;;-5.20;92.00;;;;;;4977150;28;20176;-60
2024/01/21 09:09:38;;;;;;;24.07;13.23;;;-5.10;91.30;;;;;;4978854;28;22164;-59
2024/01/21 09:12:04;;;;;;;26.60;14.10;;;-5.00;91.50;;;;;;4983895;28;20210;-58
2024/01/21 09:14:30;;;;;;;29.07;13.47;;;-4.90;91.90;;;;;;4978550;28;20447;-59
2024/01/21 09:16:56;;;;;;;29.47;14.50;;;-4.80;92.00;;;;;;4976881;28;20463;-59
2024/01/21 09:19:21;;;;;;;29.97;15.30;;;-4.70;91.60;;;;;;4972278;28;20574;-59
2024/01/21 09:21:47;;;;;;;23.80;13.73;;;-4.60;92.10;;;;;;4983838;28;20452;-60
2024/01/21 09:24:14;;;;;;;22.43;12.53;;;-4.50;91.70;;;;;;4981698;28;20270;-58
2024/01/21 09:26:41;;;;;;;27.77;12.90;;;-4.40;91.20;;;;;;4979615;28;20167;-59
2024/01/21 09:29:06;;;;;;;26.23;12.30;;;-4.30;91.00;;;;;;4978906;28;20416;-59
2024/01/21 09:31:32;;;;;;;24.70;12.40;;;-4.20;90.70;;;;;;4982260;28;20498;-59
2024/01/21 09:33:57;;;;;;;20.87;12.80;;;-4.10;90.70;;;;;;4980009;28;20198;-59
2024/01/21 09:36:23;;;;;;;26.57;13.70;;;-4.00;90.70;;;;;;4982381;28;20203;-58
2024/01/21 09:38:51;;;;;;;26.77;15.20;;;-3.90;91.00;;;;;;4985181;28;20178;-59
2024/01/21 09:41:25;;;;;;;30.27;16.00;;;-3.80;91.60;;;;;;4978650;28;20238;-60
2024/01/21 09:43:51;;;;;;;31.90;16.70;;;-3.70;91.60;;;;;;4975683;28;20455;-58
2024/01/21 09:46:17;;;;;;;31.37;15.83;;;-3.60;92.70;;;;;;4994676;28;20490;-59
2024/01/21 09:48:43;;;;;;;28.40;15.70;;;-3.50;92.60;;;;;;4973594;28;20184;-58
2024/01/21 09:51:09;;;;;;;30.80;15.00;;;-3.40;93.70;;;;;;4983354;28;20255;-60
2024/01/21 09:53:35;;;;;;;26.77;14.10;;;-3.30;94.20;;;;;;4982746;28;20441;-59
2024/01/21 09:56:08;;;;;;;31.67;15.63;;;-3.20;94.00;;;;;;4976411;28;20475;-59
2024/01/21 09:58:48;;;;;;;24.70;14.70;;;-3.10;93.60;;;;;;4978048;28;20520;-61
2024/01/21 10:01:18;;;;;;;29.17;15.30;;;-3.00;93.30;;;;;;4981701;28;20439;-61
2024/01/21 10:03:44;;;;;;;36.97;16.17;;;-3.00;93.30;;;;;;4975680;28;20823;-61
2024/01/21 10:06:10;;;;;;;27.80;15.00;;;-2.90;92.80;;;;;;4989519;28;20509;-61
2024/01/21 10:08:37;;;;;;;25.83;14.10;;;-2.90;92.10;;;;;;4980736;28;22836;-60
2024/01/21 10:11:03;;;;;;;32.43;16.70;;;-2.80;92.90;;;;;;4978381;28;20485;-59
2024/01/21 10:13:31;;;;;;;25.40;14.37;;;-2.70;94.20;;;;;;4980467;28;20435;-61
2024/01/21 10:15:57;;;;;;;28.20;16.30;;;-2.70;94.80;;;;;;4980038;28;20512;-61
2024/01/21 10:18:23;;;;;;;32.50;17.33;;;-2.50;94.80;;;;;;4979365;28;20440;-61
2024/01/21 10:20:50;;;;;;;30.20;16.10;;;-2.40;94.70;;;;;;4980024;28;20437;-61
2024/01/21 10:23:16;;;;;;;34.30;16.47;;;-2.40;94.60;;;;;;4983204;28;20211;-61
2024/01/21 10:25:43;;;;;;;34.03;17.37;;;-2.30;94.30;;;;;;4979985;28;21414;-60
2024/01/21 10:28:14;;;;;;;28.57;15.87;;;-2.20;94.30;;;;;;4976038;28;20216;-61
2024/01/21 10:30:42;;;;;;;33.93;17.30;;;-2.10;93.40;;;;;;4978240;28;22177;-60
2024/01/21 10:33:07;;;;;;;32.30;15.77;;;-2.00;92.90;;;;;;4982252;28;20442;-62
2024/01/21 10:35:33;;;;;;;31.90;16.40;;;-2.00;92.70;;;;;;4982070;28;20637;-61
2024/01/21 10:38:02;;;;;;;28.90;15.37;;;-1.90;91.90;;;;;;4977498;28;20698;-62
2024/01/21 10:40:28;;;;;;;37.07;16.00;;;-1.90;91.70;;;;;;4985056;28;20432;-60
2024/01/21 10:42:58;;;;;;;32.90;15.30;;;-1.80;91.90;;;;;;4983713;28;20438;-60
2024/01/21 10:45:25;;;;;;;33.93;18.20;;;-1.70;91.90;;;;;;4976955;28;20959;-60
2024/01/21 10:47:52;;;;;;;32.63;16.20;;;-1.70;91.40;;;;;;4980734;28;20528;-63
2024/01/21 10:50:20;;;;;;;32.70;16.50;;;-1.60;91.40;;;;;;4980003;28;20532;-59
2024/01/21 10:52:48;;;;;;;29.47;15.67;;;-1.50;91.30;;;;;;4983414;28;21125;-62
2024/01/21 10:55:13;;;;;;;24.87;14.30;;;-1.40;90.60;;;;;;4981745;28;20613;-60
2024/01/21 10:57:39;;;;;;;28.80;16.20;;;-1.40;90.60;;;;;;4986712;28;22065;-60
2024/01/21 11:00:09;;;;;;;30.10;16.27;;;-1.30;90.60;;;;;;4981602;28;20183;-61
2024/01/21 11:02:34;;;;;;;34.23;16.00;;;-1.20;90.10;;;;;;4982387;28;20430;-61
2024/01/21 11:05:00;;;;;;;30.10;16.00;;;-1.10;89.20;;;;;;4985037;28;20544;-61
2024/01/21 11:07:26;;;;;;;33.87;18.37;;;-1.10;87.40;;;;;;4985699;28;20194;-60
2024/01/21 11:09:55;;;;;;;29.10;16.97;;;-1.00;87.10;;;;;;4983906;28;20227;-61
2024/01/21 11:12:22;;;;;;;32.17;16.93;;;-0.90;86.40;;;;;;4984054;28;20602;-60
2024/01/21 11:14:48;;;;;;;33.13;17.17;;;-0.80;85.20;;;;;;4981757;28;20469;-62
2024/01/21 11:17:21;;;;;;;27.20;15.17;;;-0.70;84.60;;;;;;4984171;28;20430;-59
2024/01/21 11:19:55;;;;;;;20.63;11.47;;;-0.60;83.30;;;;;;5001212;28;20435;-61
2024/01/21 11:22:25;;;;;;;22.93;12.13;;;-0.50;81.00;;;;;;4982732;28;20447;-60
2024/01/21 11:24:53;;;;;;;26.93;12.77;;;-0.40;79.50;;;;;;4985283;28;20469;-61
2024/01/21 11:27:26;;;;;;;26.77;12.70;;;-0.30;75.70;;;;;;4986287;28;20533;-61
2024/01/21 11:29:56;;;;;;;23.00;13.00;;;-0.30;73.90;;;;;;4984407;28;20435;-60
2024/01/21 11:32:26;;;;;;;25.47;13.70;;;-0.20;73.90;;;;;;4983408;28;20474;-61
2024/01/21 11:34:53;;;;;;;27.53;13.47;;;-0.20;73.10;;;;;;4981513;28;20873;-60
2024/01/21 11:37:19;;;;;;;24.27;13.63;;;-0.10;71.70;;;;;;4985850;28;20564;-60
2024/01/21 11:39:45;;;;;;;21.63;12.70;;;0.00;70.90;;;;;;4982539;28;21143;-57
2024/01/21 11:42:11;;;;;;;26.47;13.53;;;0.00;69.80;;;;;;4981567;28;20197;-59
2024/01/21 11:44:38;;;;;;;25.63;12.87;;;0.10;70.30;;;;;;4980520;28;20550;-55
2024/01/21 11:47:05;;;;;;;27.60;12.80;;;0.20;70.10;;;;;;4986772;28;20430;-59
2024/01/21 11:49:32;;;;;;;33.40;13.67;;;0.30;69.20;;;;;;4988373;28;20419;-61
2024/01/21 11:52:05;;;;;;;24.90;13.30;;;0.30;68.70;;;;;;4983736;28;20546;-62
2024/01/21 11:54:32;;;;;;;25.40;13.10;;;0.30;68.70;;;;;;4984964;28;20468;-61
2024/01/21 11:56:57;;;;;;;25.60;13.80;;;0.40;67.70;;;;;;4977378;28;20466;-61
2024/01/21 11:59:24;;;;;;;21.17;13.67;;;0.40;67.30;;;;;;4979999;28;20427;-62
2024/01/21 12:01:50;;;;;;;32.80;14.17;;;0.40;66.70;;;;;;4980044;28;20175;-61
2024/01/21 12:04:16;;;;;;;31.27;15.03;;;0.40;66.90;;;;;;4983537;28;20438;-60
2024/01/21 12:06:45;;;;;;;29.20;15.20;;;0.50;66.30;;;;;;4982556;28;20179;-61
2024/01/21 12:09:12;;;;;;;19.83;11.77;;;0.50;65.90;;;;;;4984027;28;20467;-61
2024/01/21 12:11:39;;;;;;;23.10;12.80;;;0.50;65.80;;;;;;4984536;28;20470;-60
2024/01/21 12:14:06;;;;;;;21.90;12.77;;;0.50;65.00;;;;;;4986932;28;20838;-60
2024/01/21 12:16:33;;;;;;;19.40;11.60;;;0.60;64.10;;;;;;4983938;28;20521;-60
2024/01/21 12:18:59;;;;;;;24.63;11.37;;;0.60;63.50;;;;;;4982552;28;20446;-61
2024/01/21 12:21:27;;;;;;;16.17;10.37;;;0.50;63.60;;;;;;4982435;28;20442;-60
2024/01/21 12:23:53;;;;;;;20.70;11.10;;;0.50;63.40;;;;;;4987006;28;20179;-61
2024/01/21 12:26:20;;;;;;;18.50;10.90;;;0.50;63.10;;;;;;4985488;28;20452;-61
2024/01/21 12:28:57;;;;;;;24.80;13.10;;;0.50;63.50;;;;;;4982088;28;20183;-61